createdAt,value
2022-09-11T00:01:41.310Z,3.90
2022-09-11T00:04:10.601Z,6.73
2022-09-11T00:06:39.380Z,4.20
2022-09-11T00:09:08.813Z,5.43
2022-09-11T00:11:41.753Z,7.97
2022-09-11T00:14:14.012Z,6.67
2022-09-11T00:16:45.192Z,7.57
2022-09-11T00:19:16.397Z,6.57
2022-09-11T00:21:45.463Z,7.83
2022-09-11T00:24:14.494Z,6.80
2022-09-11T00:26:42.716Z,8.00
2022-09-11T00:29:12.736Z,6.23
2022-09-11T00:31:41.881Z,5.27
2022-09-11T00:34:10.668Z,4.53
2022-09-11T00:36:41.836Z,8.80
2022-09-11T00:39:11.537Z,6.17
2022-09-11T00:41:42.958Z,5.50
2022-09-11T00:44:45.503Z,5.50
2022-09-11T00:47:19.345Z,5.07
2022-09-11T00:49:51.149Z,6.70
2022-09-11T00:52:24.095Z,7.30
2022-09-11T00:54:58.881Z,7.53
2022-09-11T00:57:30.441Z,7.40
2022-09-11T01:00:00.831Z,6.10
2022-09-11T01:02:32.826Z,5.57
2022-09-11T01:05:03.360Z,9.23
2022-09-11T01:07:32.905Z,8.47
2022-09-11T01:10:01.457Z,6.13
2022-09-11T01:12:39.940Z,9.77
2022-09-11T01:15:12.579Z,7.93
2022-09-11T01:17:51.527Z,7.97
2022-09-11T01:21:13.600Z,8.23
2022-09-11T01:23:57.387Z,9.43
2022-09-11T01:26:48.797Z,11.47
2022-09-11T01:29:23.411Z,10.13
2022-09-11T01:32:00.635Z,10.03
2022-09-11T01:34:36.237Z,13.53
2022-09-11T01:37:09.184Z,11.33
2022-09-11T01:39:46.087Z,13.77
2022-09-11T01:42:18.738Z,13.10
2022-09-11T01:44:52.750Z,12.93
2022-09-11T01:47:23.242Z,12.47
2022-09-11T01:50:03.988Z,12.33
2022-09-11T01:52:36.286Z,13.87
2022-09-11T01:55:13.013Z,14.03
2022-09-11T01:57:46.557Z,13.07
2022-09-11T02:00:16.781Z,15.60
2022-09-11T02:02:50.222Z,13.87
2022-09-11T02:05:23.771Z,13.40
2022-09-11T02:07:58.482Z,12.37
2022-09-11T02:10:35.238Z,14.47
2022-09-11T02:13:12.231Z,13.93
2022-09-11T02:15:45.774Z,11.87
2022-09-11T02:18:21.184Z,12.60
2022-09-11T02:20:50.048Z,16.50
2022-09-11T02:23:18.862Z,12.90
2022-09-11T02:25:48.381Z,12.80
2022-09-11T02:28:16.557Z,12.83
2022-09-11T02:30:48.341Z,14.80
2022-09-11T02:33:30.754Z,15.90
2022-09-11T02:36:18.631Z,14.73
2022-09-11T02:38:56.455Z,14.50
2022-09-11T02:41:31.063Z,14.43
2022-09-11T02:44:09.708Z,13.27
2022-09-11T02:47:07.413Z,15.50
2022-09-11T02:49:49.871Z,14.47
2022-09-11T02:52:28.105Z,13.83
2022-09-11T02:55:07.383Z,14.70
2022-09-11T02:57:40.566Z,15.67
2022-09-11T03:00:12.358Z,19.00
2022-09-11T03:02:44.278Z,15.30
2022-09-11T03:05:13.815Z,14.30
2022-09-11T03:07:41.947Z,14.23
2022-09-11T03:10:12.599Z,16.27
2022-09-11T03:12:41.848Z,17.87
2022-09-11T03:15:11.859Z,17.03
2022-09-11T03:17:42.965Z,16.37
2022-09-11T03:20:49.150Z,15.30
2022-09-11T03:23:17.651Z,17.53
2022-09-11T03:25:46.061Z,17.47
2022-09-11T03:28:14.112Z,17.97
2022-09-11T03:30:42.944Z,15.03
2022-09-11T03:33:13.370Z,29.77
2022-09-11T03:35:41.588Z,15.77
2022-09-11T03:38:10.069Z,18.47
2022-09-11T03:40:38.310Z,17.80
2022-09-11T03:43:06.659Z,19.60
2022-09-11T03:45:34.931Z,16.33
2022-09-11T03:48:03.538Z,17.73
2022-09-11T03:50:33.455Z,18.47
2022-09-11T03:53:01.576Z,21.40
2022-09-11T03:55:31.676Z,25.40
2022-09-11T03:58:00.435Z,18.57
2022-09-11T04:00:28.734Z,19.73
2022-09-11T04:02:57.575Z,20.27
2022-09-11T04:05:25.988Z,21.83
2022-09-11T04:07:56.151Z,20.70
2022-09-11T04:10:24.748Z,18.77
2022-09-11T04:12:53.724Z,21.57
2022-09-11T04:15:21.949Z,20.27
2022-09-11T04:17:50.309Z,17.77
2022-09-11T04:20:42.548Z,18.97
2022-09-11T04:23:12.229Z,17.93
2022-09-11T04:25:40.456Z,18.33
2022-09-11T04:28:08.926Z,20.00
2022-09-11T04:30:38.765Z,21.43
2022-09-11T04:33:07.088Z,20.40
2022-09-11T04:35:38.821Z,19.33
2022-09-11T04:38:07.131Z,19.30
2022-09-11T04:40:38.332Z,21.80
2022-09-11T04:43:06.936Z,21.73
2022-09-11T04:45:36.810Z,22.37
2022-09-11T04:48:05.734Z,22.30
2022-09-11T04:50:33.882Z,24.27
2022-09-11T04:53:02.150Z,23.10
2022-09-11T04:55:30.317Z,21.13
2022-09-11T04:58:00.829Z,22.27
2022-09-11T05:00:29.207Z,32.03
2022-09-11T05:02:57.422Z,17.50
2022-09-11T05:05:25.988Z,18.73
2022-09-11T05:07:54.105Z,21.83
2022-09-11T05:10:22.414Z,21.70
2022-09-11T05:12:51.294Z,21.87
2022-09-11T05:15:21.115Z,19.90
2022-09-11T05:17:50.768Z,20.93
2022-09-11T05:20:25.590Z,20.47
2022-09-11T05:22:53.745Z,23.90
2022-09-11T05:25:21.672Z,23.70
2022-09-11T05:27:50.578Z,22.07
2022-09-11T05:30:20.421Z,22.70
2022-09-11T05:32:48.634Z,22.73
2022-09-11T05:35:51.196Z,19.63
2022-09-11T05:38:19.619Z,24.43
2022-09-11T05:40:49.482Z,24.60
2022-09-11T05:43:18.221Z,21.97
2022-09-11T05:45:47.002Z,27.53
2022-09-11T05:48:16.168Z,27.00
2022-09-11T05:50:56.885Z,23.87
2022-09-11T05:53:25.871Z,25.83
2022-09-11T05:55:55.185Z,26.57
2022-09-11T05:58:23.808Z,25.10
2022-09-11T06:00:52.448Z,23.20
2022-09-11T06:03:21.301Z,25.17
2022-09-11T06:05:49.384Z,25.63
2022-09-11T06:08:19.552Z,25.03
2022-09-11T06:10:47.931Z,30.33
2022-09-11T06:13:17.871Z,26.97
2022-09-11T06:15:47.353Z,28.30
2022-09-11T06:18:15.791Z,30.37
2022-09-11T06:20:44.329Z,36.03
2022-09-11T06:23:12.986Z,29.63
2022-09-11T06:25:43.435Z,32.17
2022-09-11T06:28:12.984Z,34.30
2022-09-11T06:30:42.371Z,33.13
2022-09-11T06:33:11.942Z,27.57
2022-09-11T06:35:40.239Z,26.00
2022-09-11T06:38:08.707Z,28.23
2022-09-11T06:40:38.857Z,29.87
2022-09-11T06:43:08.501Z,31.83
2022-09-11T06:45:37.042Z,33.73
2022-09-11T06:48:05.310Z,31.67
2022-09-11T06:50:40.880Z,29.40
2022-09-11T06:53:10.111Z,29.10
2022-09-11T06:55:38.471Z,27.30
2022-09-11T06:58:08.682Z,30.70
2022-09-11T07:00:37.717Z,29.20
2022-09-11T07:03:06.265Z,28.70
2022-09-11T07:05:34.853Z,30.73
2022-09-11T07:08:06.055Z,32.30
2022-09-11T07:10:34.822Z,27.77
2022-09-11T07:13:02.964Z,30.60
2022-09-11T07:15:33.059Z,29.67
2022-09-11T07:18:02.243Z,29.00
2022-09-11T07:20:31.074Z,33.37
2022-09-11T07:22:59.701Z,33.10
2022-09-11T07:25:28.227Z,28.17
2022-09-11T07:27:56.536Z,29.70
2022-09-11T07:30:24.959Z,29.70
2022-09-11T07:32:55.822Z,32.97
2022-09-11T07:35:24.077Z,27.37
2022-09-11T07:37:52.942Z,28.73
2022-09-11T07:40:21.531Z,25.93
2022-09-11T07:42:49.547Z,27.40
2022-09-11T07:45:22.482Z,27.07
2022-09-11T07:47:50.936Z,25.80
2022-09-11T07:50:20.443Z,28.33
2022-09-11T07:52:48.831Z,27.63
2022-09-11T07:55:17.339Z,25.93
2022-09-11T07:57:47.273Z,25.77
2022-09-11T08:00:18.768Z,27.00
2022-09-11T08:02:48.553Z,24.60
2022-09-11T08:05:17.454Z,23.67
2022-09-11T08:07:47.243Z,27.53
2022-09-11T08:10:27.109Z,24.50
2022-09-11T08:12:59.334Z,23.63
2022-09-11T08:15:28.358Z,30.80
2022-09-11T08:17:56.609Z,26.43
2022-09-11T08:20:24.797Z,26.47
2022-09-11T08:22:55.013Z,26.83
2022-09-11T08:25:24.021Z,29.47
2022-09-11T08:27:53.364Z,27.07
2022-09-11T08:30:21.825Z,25.47
2022-09-11T08:32:50.001Z,23.60
2022-09-11T08:35:18.370Z,24.73
2022-09-11T08:37:47.782Z,30.40
2022-09-11T08:40:20.197Z,28.10
2022-09-11T08:42:48.998Z,28.80
2022-09-11T08:45:20.203Z,29.30
2022-09-11T08:47:53.139Z,27.60
2022-09-11T08:50:25.717Z,34.23
2022-09-11T08:52:56.622Z,27.93
2022-09-11T08:55:34.445Z,29.73
2022-09-11T08:58:13.027Z,33.37
2022-09-11T09:00:45.309Z,27.63
2022-09-11T09:03:38.838Z,28.90
2022-09-11T09:06:32.506Z,30.90
2022-09-11T09:09:08.305Z,27.43
2022-09-11T09:11:48.460Z,27.20
2022-09-11T09:14:39.059Z,27.80
2022-09-11T09:17:10.190Z,26.27
2022-09-11T09:19:42.961Z,28.20
2022-09-11T09:22:16.480Z,26.33
2022-09-11T09:24:50.004Z,28.87
2022-09-11T09:27:24.273Z,24.33
2022-09-11T09:29:55.882Z,24.40
2022-09-11T09:32:30.433Z,21.60
2022-09-11T09:35:02.329Z,22.73
2022-09-11T09:37:30.995Z,24.13
2022-09-11T09:40:01.105Z,23.90
2022-09-11T09:43:03.874Z,24.47
2022-09-11T09:45:41.006Z,24.63
2022-09-11T09:48:11.773Z,23.30
2022-09-11T09:50:41.537Z,22.83
2022-09-11T09:53:17.019Z,18.30
2022-09-11T09:55:47.515Z,20.20
2022-09-11T09:58:17.309Z,21.87
2022-09-11T10:00:46.129Z,20.03
2022-09-11T10:03:22.180Z,20.20
2022-09-11T10:05:53.325Z,24.90
2022-09-11T10:08:31.744Z,22.97
2022-09-11T10:11:01.274Z,25.13
2022-09-11T10:13:36.424Z,20.63
2022-09-11T10:16:07.044Z,19.63
2022-09-11T10:18:45.307Z,19.50
2022-09-11T10:21:23.023Z,19.97
2022-09-11T10:23:54.508Z,21.53
2022-09-11T10:26:29.685Z,18.80
2022-09-11T10:29:05.145Z,17.67
2022-09-11T10:31:33.581Z,21.97
2022-09-11T10:34:02.277Z,17.43
2022-09-11T10:36:32.480Z,15.60
2022-09-11T10:39:02.511Z,17.73
2022-09-11T10:41:34.825Z,19.17
2022-09-11T10:44:07.873Z,13.50
2022-09-11T10:46:41.144Z,20.60
2022-09-11T10:49:21.782Z,22.03
2022-09-11T10:52:02.275Z,18.93
2022-09-11T10:54:46.740Z,19.40
2022-09-11T10:57:22.974Z,42.67
2022-09-11T11:00:17.385Z,32.63
2022-09-11T11:02:47.496Z,22.30
2022-09-11T11:05:24.660Z,18.93
2022-09-11T11:08:12.200Z,19.50
2022-09-11T11:10:56.124Z,21.17
2022-09-11T11:13:38.484Z,20.03
2022-09-11T11:16:19.796Z,19.23
2022-09-11T11:19:06.738Z,18.53
2022-09-11T11:21:49.754Z,20.00
2022-09-11T11:24:31.270Z,16.10
2022-09-11T11:27:14.489Z,46.53
2022-09-11T11:30:03.182Z,18.00
2022-09-11T11:32:56.568Z,19.83
2022-09-11T11:35:28.224Z,18.20
2022-09-11T11:38:03.730Z,17.57
2022-09-11T11:40:37.326Z,20.67
2022-09-11T11:43:07.862Z,17.20
2022-09-11T11:45:41.517Z,18.13
2022-09-11T11:48:15.850Z,17.43
2022-09-11T11:50:46.850Z,21.00
2022-09-11T11:53:22.154Z,19.80
2022-09-11T11:55:58.983Z,19.80
2022-09-11T11:58:47.164Z,18.57
2022-09-11T12:01:22.271Z,19.53
2022-09-11T12:04:00.537Z,19.10
2022-09-11T12:06:31.488Z,17.07
2022-09-11T12:08:59.716Z,16.03
2022-09-11T12:11:31.830Z,21.10
2022-09-11T12:14:00.953Z,19.83
2022-09-11T12:16:32.870Z,15.60
2022-09-11T12:19:17.568Z,15.80
2022-09-11T12:22:11.634Z,14.50
2022-09-11T12:24:55.207Z,15.10
2022-09-11T12:27:55.660Z,13.53
2022-09-11T12:30:27.144Z,15.43
2022-09-11T12:32:57.206Z,14.33
2022-09-11T12:35:32.542Z,14.80
2022-09-11T12:38:13.384Z,15.43
2022-09-11T12:40:51.046Z,16.13
2022-09-11T12:43:47.317Z,15.63
2022-09-11T12:46:53.977Z,14.53
2022-09-11T12:49:24.003Z,16.03
2022-09-11T12:51:58.465Z,15.57
2022-09-11T12:54:31.576Z,14.57
2022-09-11T12:57:02.994Z,15.20
2022-09-11T12:59:34.040Z,15.97
2022-09-11T13:02:04.091Z,17.53
2022-09-11T13:04:34.138Z,11.90
2022-09-11T13:07:07.274Z,14.50
2022-09-11T13:09:41.226Z,14.23
2022-09-11T13:12:49.192Z,15.40
2022-09-11T13:15:36.372Z,14.93
2022-09-11T13:18:30.215Z,15.43
2022-09-11T13:21:21.998Z,14.37
2022-09-11T13:23:54.348Z,14.07
2022-09-11T13:26:28.809Z,14.13
2022-09-11T13:28:59.986Z,15.77
2022-09-11T13:31:35.757Z,15.60
2022-09-11T13:34:08.458Z,14.53
2022-09-11T13:36:39.099Z,13.27
2022-09-11T13:39:10.364Z,11.73
2022-09-11T13:41:43.739Z,13.17
2022-09-11T13:44:14.439Z,13.73
2022-09-11T13:46:51.845Z,12.23
2022-09-11T13:49:36.240Z,13.23
2022-09-11T13:52:06.800Z,11.83
2022-09-11T13:54:39.004Z,11.80
2022-09-11T13:57:16.236Z,11.13
2022-09-11T13:59:49.564Z,13.30
2022-09-11T14:02:42.174Z,13.40
2022-09-11T14:05:17.740Z,10.83
2022-09-11T14:07:53.268Z,9.50
2022-09-11T14:10:51.040Z,11.57
2022-09-11T14:13:24.464Z,11.63
2022-09-11T14:15:55.831Z,10.60
2022-09-11T14:18:32.741Z,9.97
2022-09-11T14:21:33.602Z,10.77
2022-09-11T14:24:02.217Z,12.03
2022-09-11T14:26:43.527Z,11.60
2022-09-11T14:29:28.651Z,9.83
2022-09-11T14:32:23.432Z,11.67
2022-09-11T14:34:53.140Z,10.60
2022-09-11T14:37:21.963Z,9.77
2022-09-11T14:39:56.574Z,10.77
2022-09-11T14:42:30.527Z,10.73
2022-09-11T14:44:58.870Z,12.37
2022-09-11T14:47:31.230Z,10.10
2022-09-11T14:50:00.914Z,11.13
2022-09-11T14:52:30.958Z,10.60
2022-09-11T14:54:59.434Z,9.40
2022-09-11T14:57:33.749Z,9.93
2022-09-11T15:00:02.342Z,11.17
2022-09-11T15:02:30.778Z,10.23
2022-09-11T15:04:59.601Z,13.60
2022-09-11T15:07:28.697Z,14.23
2022-09-11T15:09:59.009Z,11.13
2022-09-11T15:12:29.332Z,12.00
2022-09-11T15:14:59.634Z,11.30
2022-09-11T15:17:31.806Z,12.90
2022-09-11T15:20:04.692Z,13.10
2022-09-11T15:22:35.709Z,10.80
2022-09-11T15:25:04.056Z,12.40
2022-09-11T15:27:32.606Z,12.97
2022-09-11T15:30:02.443Z,11.30
2022-09-11T15:32:31.538Z,13.27
2022-09-11T15:35:00.033Z,11.13
2022-09-11T15:37:28.416Z,11.73
2022-09-11T15:39:56.586Z,12.90
2022-09-11T15:42:25.414Z,9.20
2022-09-11T15:44:56.274Z,9.77
2022-09-11T15:47:26.061Z,9.90
2022-09-11T15:49:54.201Z,9.70
2022-09-11T15:52:22.625Z,9.00
2022-09-11T15:54:51.131Z,10.10
2022-09-11T15:57:19.569Z,10.33
2022-09-11T15:59:51.793Z,9.10
2022-09-11T16:02:21.763Z,8.10
2022-09-11T16:04:53.672Z,10.10
2022-09-11T16:07:22.906Z,8.40
2022-09-11T16:09:51.186Z,9.77
2022-09-11T16:12:20.263Z,12.30
2022-09-11T16:14:48.533Z,8.87
2022-09-11T16:17:20.602Z,9.00
2022-09-11T16:20:09.659Z,8.73
2022-09-11T16:22:38.139Z,9.47
2022-09-11T16:25:07.213Z,11.23
2022-09-11T16:27:35.725Z,11.37
2022-09-11T16:32:53.141Z,9.27
2022-09-11T16:35:23.728Z,8.50
2022-09-11T16:37:52.450Z,11.10
2022-09-11T16:40:20.814Z,10.20
2022-09-11T16:42:49.635Z,9.03
2022-09-11T16:45:19.842Z,11.23
2022-09-11T16:47:51.635Z,9.37
2022-09-11T16:50:19.962Z,9.23
2022-09-11T16:52:50.920Z,14.90
2022-09-11T16:55:21.290Z,10.17
2022-09-11T16:57:49.457Z,13.43
2022-09-11T17:00:17.888Z,10.40
2022-09-11T17:02:46.049Z,8.33
2022-09-11T17:05:14.646Z,8.33
2022-09-11T17:07:42.971Z,9.73
2022-09-11T17:10:14.407Z,9.43
2022-09-11T17:12:43.442Z,10.00
2022-09-11T17:15:12.139Z,10.50
2022-09-11T17:17:42.268Z,11.50
2022-09-11T17:20:12.885Z,9.77
2022-09-11T17:22:41.604Z,10.47
2022-09-11T17:25:11.515Z,12.57
2022-09-11T17:27:41.069Z,11.50
2022-09-11T17:30:10.624Z,11.73
2022-09-11T17:32:39.052Z,10.97
2022-09-11T17:35:08.105Z,9.60
2022-09-11T17:37:36.154Z,11.50
2022-09-11T17:40:04.958Z,13.07
2022-09-11T17:42:33.909Z,16.77
2022-09-11T17:45:04.033Z,13.70
2022-09-11T17:47:33.877Z,11.20
2022-09-11T17:50:03.310Z,13.90
2022-09-11T17:52:33.902Z,14.23
2022-09-11T17:55:02.484Z,12.30
2022-09-11T17:57:31.430Z,9.33
2022-09-11T17:59:59.774Z,9.90
2022-09-11T18:02:29.171Z,12.37
2022-09-11T18:04:57.339Z,10.43
2022-09-11T18:07:25.335Z,11.20
2022-09-11T18:09:56.567Z,11.10
2022-09-11T18:12:28.347Z,11.77
2022-09-11T18:14:59.215Z,10.00
2022-09-11T18:17:31.240Z,12.70
2022-09-11T18:19:59.506Z,12.40
2022-09-11T18:22:29.867Z,21.17
2022-09-11T18:24:59.895Z,10.73
2022-09-11T18:27:29.903Z,12.63
2022-09-11T18:30:00.435Z,11.00
2022-09-11T18:32:30.170Z,15.10
2022-09-11T18:35:00.046Z,12.43
2022-09-11T18:37:28.770Z,18.70
2022-09-11T18:39:57.465Z,14.03
2022-09-11T18:42:25.887Z,14.03
2022-09-11T18:44:54.148Z,10.50
2022-09-11T18:47:23.880Z,12.80
2022-09-11T18:49:53.969Z,16.40
2022-09-11T18:52:26.273Z,18.03
2022-09-11T18:54:54.821Z,11.13
2022-09-11T18:57:23.083Z,13.30
2022-09-11T18:59:52.337Z,13.73
2022-09-11T19:02:20.685Z,12.03
2022-09-11T19:04:49.018Z,14.40
2022-09-11T19:07:18.602Z,9.60
2022-09-11T19:09:49.265Z,10.43
2022-09-11T19:12:17.630Z,10.37
2022-09-11T19:14:48.784Z,17.20
2022-09-11T19:17:16.938Z,11.47
2022-09-11T19:19:45.045Z,13.10
2022-09-11T19:22:13.249Z,12.67
2022-09-11T19:24:43.085Z,14.10
2022-09-11T19:27:11.532Z,10.93
2022-09-11T19:29:40.277Z,12.10
2022-09-11T19:32:08.967Z,11.97
2022-09-11T19:34:46.436Z,12.20
2022-09-11T19:37:15.921Z,17.23
2022-09-11T19:39:45.620Z,10.90
2022-09-11T19:42:13.831Z,10.17
2022-09-11T19:44:42.224Z,11.73
2022-09-11T19:47:10.365Z,11.80
2022-09-11T19:49:38.684Z,12.03
2022-09-11T19:52:08.232Z,11.93
2022-09-11T19:54:38.302Z,11.37
2022-09-11T19:57:08.705Z,10.60
2022-09-11T19:59:37.008Z,11.00
2022-09-11T20:02:05.304Z,10.63
2022-09-11T20:04:35.573Z,9.87
2022-09-11T20:07:03.915Z,11.10
2022-09-11T20:09:32.769Z,13.83
2022-09-11T20:12:01.862Z,8.93
2022-09-11T20:14:32.082Z,11.00
2022-09-11T20:17:01.075Z,11.93
2022-09-11T20:19:30.229Z,11.10
2022-09-11T20:22:00.456Z,10.30
2022-09-11T20:24:29.235Z,11.40
2022-09-11T20:26:57.462Z,12.20
2022-09-11T20:29:27.069Z,10.17
2022-09-11T20:31:57.012Z,14.83
2022-09-11T20:34:28.185Z,11.60
2022-09-11T20:37:00.899Z,14.13
2022-09-11T20:39:29.324Z,13.27
2022-09-11T20:41:57.969Z,11.30
2022-09-11T20:44:26.754Z,15.57
2022-09-11T20:46:56.477Z,10.73
2022-09-11T20:49:24.876Z,12.57
2022-09-11T20:51:53.094Z,11.30
2022-09-11T20:54:23.308Z,9.80
2022-09-11T20:56:52.455Z,31.70
2022-09-11T20:59:20.823Z,57.80
2022-09-11T21:01:49.257Z,18.03
2022-09-11T21:04:19.010Z,16.03
2022-09-11T21:06:47.654Z,13.50
2022-09-11T21:09:15.778Z,11.07
2022-09-11T21:11:46.668Z,12.13
2022-09-11T21:14:17.830Z,16.23
2022-09-11T21:16:46.105Z,15.70
2022-09-11T21:19:14.732Z,9.93
2022-09-11T21:21:44.292Z,23.97
2022-09-11T21:24:14.161Z,25.83
2022-09-11T21:26:42.532Z,11.90
2022-09-11T21:29:14.276Z,10.40
2022-09-11T21:31:42.605Z,10.20
2022-09-11T21:34:11.984Z,9.53
2022-09-11T21:36:42.638Z,10.00
2022-09-11T21:39:12.999Z,10.83
2022-09-11T21:41:41.036Z,11.10
2022-09-11T21:44:09.707Z,10.23
2022-09-11T21:46:37.840Z,12.47
2022-09-11T21:49:06.163Z,14.50
2022-09-11T21:51:34.416Z,10.23
2022-09-11T21:54:03.176Z,12.50
2022-09-11T21:56:34.417Z,9.13
2022-09-11T21:59:03.142Z,13.50
2022-09-11T22:01:32.049Z,12.20
2022-09-11T22:04:01.597Z,15.30
2022-09-11T22:06:31.449Z,13.03
2022-09-11T22:08:59.875Z,10.63
2022-09-11T22:11:28.514Z,13.77
2022-09-11T22:13:58.275Z,8.67
2022-09-11T22:16:26.826Z,9.23
2022-09-11T22:18:57.043Z,13.20
2022-09-11T22:21:25.486Z,13.20
2022-09-11T22:23:55.333Z,11.70
2022-09-11T22:26:24.617Z,12.70
2022-09-11T22:28:53.893Z,13.93
2022-09-11T22:31:27.813Z,11.70
2022-09-11T22:33:57.614Z,11.60
2022-09-11T22:36:27.651Z,12.50
2022-09-11T22:38:56.450Z,12.90
2022-09-11T22:41:24.733Z,12.13
2022-09-11T22:43:53.739Z,14.97
2022-09-11T22:46:24.077Z,12.30
2022-09-11T22:48:54.858Z,12.40
2022-09-11T22:51:24.975Z,11.93
2022-09-11T22:53:53.053Z,14.17
2022-09-11T22:56:21.999Z,12.03
2022-09-11T22:58:50.508Z,14.33
2022-09-11T23:01:22.379Z,15.50
2022-09-11T23:03:53.302Z,10.40
2022-09-11T23:06:38.995Z,13.70
2022-09-11T23:09:07.978Z,12.73
2022-09-11T23:11:36.388Z,11.90
2022-09-11T23:14:04.754Z,12.73
2022-09-11T23:16:33.320Z,12.63
2022-09-11T23:19:05.522Z,10.67
2022-09-11T23:21:35.786Z,12.97
2022-09-11T23:24:06.142Z,13.23
2022-09-11T23:26:35.003Z,10.87
2022-09-11T23:29:03.264Z,12.53
2022-09-11T23:31:34.231Z,15.03
2022-09-11T23:34:06.173Z,11.87
2022-09-11T23:36:35.041Z,9.87
2022-09-11T23:39:03.900Z,12.77
2022-09-11T23:41:34.701Z,13.27
2022-09-11T23:44:03.603Z,11.47
2022-09-11T23:46:31.966Z,14.47
2022-09-11T23:49:00.422Z,14.60
2022-09-11T23:51:29.912Z,18.00
2022-09-11T23:53:58.080Z,10.27
2022-09-11T23:56:26.331Z,9.53
2022-09-11T23:58:54.741Z,15.00
